createdAt,value
2023-04-21T00:01:14.982Z,8.99
2023-04-21T00:03:44.265Z,9.04
2023-04-21T00:06:12.870Z,9.04
2023-04-21T00:08:41.512Z,9.00
2023-04-21T00:11:10.798Z,8.98
2023-04-21T00:13:39.202Z,9.04
2023-04-21T00:16:08.496Z,8.96
2023-04-21T00:18:38.366Z,8.98
2023-04-21T00:21:07.044Z,8.91
2023-04-21T00:23:35.681Z,9.00
2023-04-21T00:26:04.057Z,8.76
2023-04-21T00:28:32.308Z,8.90
2023-04-21T00:31:00.909Z,8.92
2023-04-21T00:33:29.253Z,8.94
2023-04-21T00:35:59.950Z,8.80
2023-04-21T00:38:28.224Z,8.84
2023-04-21T00:40:56.815Z,8.53
2023-04-21T00:43:25.999Z,8.69
2023-04-21T00:45:54.417Z,8.71
2023-04-21T00:48:22.663Z,8.60
2023-04-21T00:50:51.158Z,8.56
2023-04-21T00:53:22.190Z,8.63
2023-04-21T00:55:52.254Z,8.69
2023-04-21T00:58:20.693Z,8.74
2023-04-21T01:00:49.022Z,8.54
2023-04-21T01:03:17.883Z,8.52
2023-04-21T01:05:46.921Z,8.43
2023-04-21T01:08:16.388Z,8.44
2023-04-21T01:10:46.179Z,8.42
2023-04-21T01:13:14.501Z,8.24
2023-04-21T01:15:42.893Z,8.30
2023-04-21T01:18:12.001Z,8.20
2023-04-21T01:20:40.380Z,8.34
2023-04-21T01:23:10.118Z,8.34
2023-04-21T01:25:38.548Z,8.34
2023-04-21T01:28:06.920Z,8.38
2023-04-21T01:30:35.239Z,8.41
2023-04-21T01:33:03.737Z,8.47
2023-04-21T01:35:32.317Z,8.47
2023-04-21T01:38:01.536Z,8.40
2023-04-21T01:40:31.461Z,8.35
2023-04-21T01:42:59.803Z,7.84
2023-04-21T01:45:28.073Z,8.41
2023-04-21T01:47:56.451Z,8.50
2023-04-21T01:50:24.822Z,8.54
2023-04-21T01:52:53.090Z,8.34
2023-04-21T01:55:21.953Z,8.36
2023-04-21T01:57:51.708Z,8.34
2023-04-21T02:00:20.473Z,8.32
2023-04-21T02:02:48.914Z,8.32
2023-04-21T02:05:17.332Z,8.29
2023-04-21T02:07:45.628Z,8.26
2023-04-21T02:10:14.500Z,8.21
2023-04-21T02:12:42.776Z,8.08
2023-04-21T02:15:13.616Z,8.36
2023-04-21T02:17:45.068Z,8.38
2023-04-21T02:20:14.196Z,8.40
2023-04-21T02:22:42.422Z,8.46
2023-04-21T02:25:11.125Z,8.50
2023-04-21T02:27:39.478Z,8.54
2023-04-21T02:30:09.876Z,8.48
2023-04-21T02:32:39.763Z,8.39
2023-04-21T02:35:08.704Z,8.35
2023-04-21T02:37:37.420Z,7.81
2023-04-21T02:40:06.832Z,8.41
2023-04-21T02:42:35.338Z,8.36
2023-04-21T02:45:03.560Z,8.31
2023-04-21T02:47:31.901Z,8.28
2023-04-21T02:50:02.297Z,8.21
2023-04-21T02:52:30.678Z,8.31
2023-04-21T02:54:59.029Z,8.42
2023-04-21T02:57:27.295Z,8.40
2023-04-21T02:59:55.648Z,8.29
2023-04-21T03:02:24.106Z,8.28
2023-04-21T03:04:53.250Z,8.10
2023-04-21T03:07:23.017Z,8.23
2023-04-21T03:09:51.367Z,8.16
2023-04-21T03:12:19.585Z,8.22
2023-04-21T03:14:48.224Z,8.23
2023-04-21T03:17:16.559Z,8.14
2023-04-21T03:19:44.958Z,7.96
2023-04-21T03:22:13.254Z,7.90
2023-04-21T03:24:43.115Z,8.17
2023-04-21T03:27:11.448Z,7.35
2023-04-21T03:29:39.759Z,8.28
2023-04-21T03:32:08.133Z,8.30
2023-04-21T03:34:36.723Z,8.39
2023-04-21T03:37:04.946Z,8.41
2023-04-21T03:39:33.203Z,8.25
2023-04-21T03:42:03.000Z,8.25
2023-04-21T03:44:31.306Z,8.32
2023-04-21T03:46:59.738Z,8.16
2023-04-21T03:49:28.048Z,8.14
2023-04-21T03:51:56.450Z,8.14
2023-04-21T03:54:24.841Z,8.17
2023-04-21T03:56:53.045Z,8.05
2023-04-21T03:59:22.950Z,8.04
2023-04-21T04:01:51.588Z,8.02
2023-04-21T04:04:20.276Z,8.11
2023-04-21T04:06:49.071Z,8.15
2023-04-21T04:09:17.396Z,7.97
2023-04-21T04:11:45.975Z,8.19
2023-04-21T04:14:14.290Z,8.18
2023-04-21T04:16:44.205Z,8.15
2023-04-21T04:19:12.685Z,8.25
2023-04-21T04:21:41.092Z,8.28
2023-04-21T04:24:11.311Z,8.43
2023-04-21T04:26:40.256Z,8.75
2023-04-21T04:29:10.983Z,8.59
2023-04-21T04:31:39.980Z,8.33
2023-04-21T04:34:09.847Z,8.87
2023-04-21T04:36:38.167Z,8.85
2023-04-21T04:39:07.767Z,8.72
2023-04-21T04:41:37.447Z,8.85
2023-04-21T04:44:06.390Z,9.09
2023-04-21T04:46:34.767Z,9.24
2023-04-21T04:49:03.326Z,9.34
2023-04-21T04:51:34.091Z,9.32
2023-04-21T04:54:02.419Z,9.26
2023-04-21T04:56:32.388Z,9.14
2023-04-21T04:59:00.932Z,9.12
2023-04-21T05:01:30.981Z,9.07
2023-04-21T05:03:59.885Z,9.06
2023-04-21T05:06:28.717Z,8.99
2023-04-21T05:08:58.346Z,8.96
2023-04-21T05:11:26.692Z,8.97
2023-04-21T05:13:55.186Z,9.14
2023-04-21T05:16:23.589Z,9.10
2023-04-21T05:18:54.190Z,9.16
2023-04-21T05:21:27.854Z,9.38
2023-04-21T05:23:58.923Z,9.43
2023-04-21T05:26:28.686Z,9.46
2023-04-21T05:28:58.240Z,8.86
2023-04-21T05:31:27.096Z,9.60
2023-04-21T05:33:55.414Z,9.65
2023-04-21T05:36:25.046Z,9.67
2023-04-21T05:38:55.255Z,9.76
2023-04-21T05:41:24.988Z,9.86
2023-04-21T05:43:53.225Z,9.83
2023-04-21T05:46:21.726Z,9.97
2023-04-21T05:48:50.089Z,10.04
2023-04-21T05:51:18.376Z,10.13
2023-04-21T05:53:47.425Z,10.20
2023-04-21T05:56:15.776Z,10.29
2023-04-21T05:58:45.712Z,10.31
2023-04-21T06:01:15.793Z,10.16
2023-04-21T06:03:44.220Z,9.72
2023-04-21T06:06:13.492Z,10.24
2023-04-21T06:08:41.809Z,9.83
2023-04-21T06:11:10.353Z,10.00
2023-04-21T06:13:39.538Z,9.94
2023-04-21T06:16:10.995Z,9.98
2023-04-21T06:18:39.570Z,10.09
2023-04-21T06:21:12.961Z,10.19
2023-04-21T06:23:42.086Z,10.24
2023-04-21T06:26:10.444Z,10.27
2023-04-21T06:28:39.472Z,10.36
2023-04-21T06:31:10.123Z,10.45
2023-04-21T06:33:40.033Z,10.57
2023-04-21T06:36:08.987Z,10.57
2023-04-21T06:38:40.469Z,10.75
2023-04-21T06:41:09.130Z,10.87
2023-04-21T06:43:38.655Z,11.08
2023-04-21T06:46:07.585Z,11.41
2023-04-21T06:48:35.924Z,11.79
2023-04-21T06:51:06.094Z,12.01
2023-04-21T06:53:34.451Z,12.13
2023-04-21T06:56:02.759Z,12.52
2023-04-21T06:58:31.091Z,12.85
2023-04-21T07:00:59.496Z,13.17
2023-04-21T07:03:27.926Z,12.81
2023-04-21T07:05:56.201Z,13.69
2023-04-21T07:08:26.772Z,13.62
2023-04-21T07:10:55.053Z,13.57
2023-04-21T07:13:23.424Z,13.57
2023-04-21T07:15:51.956Z,13.71
2023-04-21T07:18:20.294Z,13.60
2023-04-21T07:20:48.664Z,13.80
2023-04-21T07:23:18.104Z,13.99
2023-04-21T07:25:47.833Z,14.07
2023-04-21T07:28:16.616Z,14.18
2023-04-21T07:30:45.022Z,14.00
2023-04-21T07:33:13.520Z,13.82
2023-04-21T07:35:41.992Z,14.33
2023-04-21T07:38:10.389Z,14.56
2023-04-21T07:40:38.765Z,14.77
2023-04-21T07:43:08.727Z,14.87
2023-04-21T07:45:36.949Z,15.09
2023-04-21T07:48:06.876Z,15.06
2023-04-21T07:50:36.823Z,15.08
2023-04-21T07:53:05.516Z,15.06
2023-04-21T07:55:34.626Z,15.09
2023-04-21T07:58:02.945Z,15.06
2023-04-21T08:00:32.860Z,14.62
2023-04-21T08:03:01.844Z,14.88
2023-04-21T08:05:33.997Z,14.89
2023-04-21T08:08:04.438Z,14.72
2023-04-21T08:10:32.945Z,14.39
2023-04-21T08:13:01.370Z,14.58
2023-04-21T08:15:30.106Z,14.56
2023-04-21T08:18:00.084Z,14.59
2023-04-21T08:20:28.710Z,14.65
2023-04-21T08:22:57.013Z,14.70
2023-04-21T08:25:25.460Z,14.78
2023-04-21T08:27:53.783Z,14.81
2023-04-21T08:30:22.688Z,14.60
2023-04-21T08:32:51.195Z,14.93
2023-04-21T08:35:21.280Z,14.95
2023-04-21T08:37:50.609Z,14.83
2023-04-21T08:40:20.292Z,15.01
2023-04-21T08:42:49.869Z,15.18
2023-04-21T08:45:18.101Z,15.18
2023-04-21T08:47:47.204Z,15.13
2023-04-21T08:50:15.923Z,14.81
2023-04-21T08:52:46.019Z,15.16
2023-04-21T08:55:15.362Z,15.06
2023-04-21T08:57:43.708Z,14.97
2023-04-21T09:00:13.102Z,14.95
2023-04-21T09:03:00.939Z,14.84
2023-04-21T09:05:32.383Z,15.18
2023-04-21T09:08:11.511Z,15.43
2023-04-21T09:10:46.621Z,15.95
2023-04-21T09:13:15.387Z,16.24
2023-04-21T09:15:44.590Z,16.60
2023-04-21T09:18:15.576Z,16.89
2023-04-21T09:20:44.904Z,16.71
2023-04-21T09:23:14.938Z,16.66
2023-04-21T09:25:44.678Z,16.71
2023-04-21T09:28:14.410Z,16.66
2023-04-21T09:30:44.493Z,16.50
2023-04-21T09:33:29.081Z,16.26
2023-04-21T09:36:03.445Z,16.19
2023-04-21T09:38:34.550Z,15.93
2023-04-21T09:41:02.978Z,15.90
2023-04-21T09:43:32.528Z,15.84
2023-04-21T09:46:07.301Z,15.87
2023-04-21T09:48:37.944Z,15.19
2023-04-21T09:53:41.380Z,15.48
2023-04-21T09:56:13.094Z,15.46
2023-04-21T09:58:47.308Z,15.56
2023-04-21T10:01:16.781Z,15.87
2023-04-21T10:03:47.190Z,16.23
2023-04-21T10:06:16.142Z,16.60
2023-04-21T10:08:46.924Z,16.81
2023-04-21T10:11:17.181Z,17.15
2023-04-21T10:13:46.183Z,17.13
2023-04-21T10:16:18.333Z,17.17
2023-04-21T10:18:47.726Z,17.26
2023-04-21T10:21:22.299Z,17.44
2023-04-21T10:23:54.340Z,17.67
2023-04-21T10:26:24.852Z,17.50
2023-04-21T10:28:58.175Z,17.24
2023-04-21T10:31:34.949Z,17.32
2023-04-21T10:34:23.611Z,17.36
2023-04-21T10:37:15.809Z,17.56
2023-04-21T10:39:48.722Z,17.53
2023-04-21T10:42:23.201Z,17.61
2023-04-21T10:45:04.153Z,17.83
2023-04-21T10:47:38.596Z,17.63
2023-04-21T10:50:16.005Z,17.36
2023-04-21T10:52:53.425Z,16.80
2023-04-21T10:55:23.764Z,17.38
2023-04-21T10:57:52.245Z,17.37
2023-04-21T11:00:23.155Z,17.43
2023-04-21T11:02:59.672Z,17.29
2023-04-21T11:05:35.010Z,17.09
2023-04-21T11:08:14.915Z,16.87
2023-04-21T11:10:52.133Z,16.63
2023-04-21T11:13:23.550Z,16.80
2023-04-21T11:16:02.122Z,16.87
2023-04-21T11:18:40.561Z,16.87
2023-04-21T11:21:13.957Z,17.04
2023-04-21T11:23:43.133Z,17.08
2023-04-21T11:26:12.820Z,17.01
2023-04-21T11:28:42.160Z,16.98
2023-04-21T11:31:10.709Z,17.15
2023-04-21T11:33:40.512Z,17.23
2023-04-21T11:36:09.467Z,17.25
2023-04-21T11:38:41.973Z,17.16
2023-04-21T11:41:12.883Z,17.08
2023-04-21T11:43:41.191Z,17.12
2023-04-21T11:46:19.300Z,17.00
2023-04-21T11:48:47.698Z,16.64
2023-04-21T11:51:22.159Z,16.66
2023-04-21T11:53:50.829Z,16.65
2023-04-21T11:56:23.522Z,16.63
2023-04-21T11:58:53.029Z,16.59
2023-04-21T12:01:22.108Z,16.59
2023-04-21T12:03:55.591Z,16.14
2023-04-21T12:06:26.222Z,16.28
2023-04-21T12:08:59.046Z,16.81
2023-04-21T12:11:29.454Z,17.15
2023-04-21T12:13:59.323Z,17.52
2023-04-21T12:16:28.610Z,17.36
2023-04-21T12:18:57.961Z,17.41
2023-04-21T12:21:29.654Z,17.23
2023-04-21T12:23:58.720Z,17.14
2023-04-21T12:26:28.524Z,17.22
2023-04-21T12:28:57.182Z,17.15
2023-04-21T12:31:26.213Z,16.66
2023-04-21T12:33:54.700Z,16.52
2023-04-21T12:36:23.236Z,16.26
2023-04-21T12:38:51.624Z,15.81
2023-04-21T12:41:20.139Z,15.89
2023-04-21T12:43:50.016Z,15.71
2023-04-21T12:46:18.397Z,15.45
2023-04-21T12:48:46.746Z,15.34
2023-04-21T12:51:15.244Z,15.46
2023-04-21T12:53:43.472Z,15.60
2023-04-21T12:56:12.015Z,15.70
2023-04-21T12:58:40.369Z,15.67
2023-04-21T13:01:10.102Z,15.68
2023-04-21T13:03:38.610Z,15.39
2023-04-21T13:06:07.392Z,15.30
2023-04-21T13:08:36.181Z,15.23
2023-04-21T13:11:04.649Z,15.19
2023-04-21T13:13:33.225Z,15.30
2023-04-21T13:16:01.739Z,15.19
2023-04-21T13:18:31.565Z,15.17
2023-04-21T13:20:59.881Z,15.01
2023-04-21T13:23:28.312Z,14.94
2023-04-21T13:25:57.026Z,14.34
2023-04-21T13:28:26.746Z,14.93
2023-04-21T13:30:55.453Z,14.98
2023-04-21T13:33:24.090Z,15.04
2023-04-21T13:35:53.835Z,14.94
2023-04-21T13:38:22.452Z,15.24
2023-04-21T13:40:51.346Z,15.17
2023-04-21T13:43:19.647Z,15.34
2023-04-21T13:45:50.005Z,15.11
2023-04-21T13:48:18.399Z,15.59
2023-04-21T13:50:46.789Z,15.62
2023-04-21T13:53:19.263Z,15.50
2023-04-21T13:55:49.033Z,15.55
2023-04-21T13:58:18.126Z,15.43
2023-04-21T14:00:46.382Z,15.41
2023-04-21T14:03:15.196Z,15.79
2023-04-21T14:05:43.848Z,15.61
2023-04-21T14:08:12.428Z,15.82
2023-04-21T14:10:42.289Z,15.58
2023-04-21T14:13:15.092Z,16.18
2023-04-21T14:15:55.572Z,16.31
2023-04-21T14:18:24.058Z,16.52
2023-04-21T14:20:52.389Z,16.53
2023-04-21T14:23:20.706Z,16.19
2023-04-21T14:25:50.816Z,16.83
2023-04-21T14:28:20.009Z,16.27
2023-04-21T14:30:48.411Z,16.53
2023-04-21T14:33:16.865Z,16.25
2023-04-21T14:35:45.263Z,16.43
2023-04-21T14:38:13.562Z,16.16
2023-04-21T14:40:41.896Z,16.27
2023-04-21T14:43:12.225Z,16.40
2023-04-21T14:45:41.342Z,16.45
2023-04-21T14:48:09.817Z,16.25
2023-04-21T14:50:38.057Z,16.29
2023-04-21T14:53:06.969Z,16.32
2023-04-21T14:55:35.487Z,16.22
2023-04-21T14:58:03.869Z,16.29
2023-04-21T15:00:35.121Z,16.11
2023-04-21T15:03:04.038Z,15.97
2023-04-21T15:05:32.780Z,15.96
2023-04-21T15:08:01.212Z,16.10
2023-04-21T15:10:32.400Z,15.97
2023-04-21T15:13:00.923Z,16.07
2023-04-21T15:15:29.387Z,16.07
2023-04-21T15:17:59.168Z,15.71
2023-04-21T15:20:42.997Z,16.01
2023-04-21T15:23:12.911Z,16.07
2023-04-21T15:25:41.709Z,16.06
2023-04-21T15:28:10.074Z,16.05
2023-04-21T15:30:38.482Z,16.08
2023-04-21T15:33:08.356Z,15.99
2023-04-21T15:35:36.677Z,16.04
2023-04-21T15:38:06.149Z,15.99
2023-04-21T15:40:35.361Z,15.97
2023-04-21T15:43:06.247Z,16.02
2023-04-21T15:45:34.725Z,15.97
2023-04-21T15:48:03.208Z,16.00
2023-04-21T15:50:33.039Z,15.87
2023-04-21T15:53:01.412Z,15.89
2023-04-21T15:55:30.604Z,16.05
2023-04-21T15:57:59.048Z,16.21
2023-04-21T16:00:27.428Z,16.17
2023-04-21T16:02:55.995Z,16.33
2023-04-21T16:05:27.646Z,16.33
2023-04-21T16:07:58.740Z,16.43
2023-04-21T16:10:27.039Z,16.44
2023-04-21T16:12:55.696Z,16.50
2023-04-21T16:15:25.005Z,16.53
2023-04-21T16:17:53.707Z,16.55
2023-04-21T16:20:22.184Z,16.57
2023-04-21T16:22:51.384Z,16.54
2023-04-21T16:25:21.568Z,16.52
2023-04-21T16:27:50.158Z,15.93
2023-04-21T16:30:18.654Z,16.39
2023-04-21T16:32:47.185Z,16.32
2023-04-21T16:35:15.629Z,16.38
2023-04-21T16:37:44.657Z,16.40
2023-04-21T16:40:14.331Z,16.36
2023-04-21T16:42:44.121Z,16.41
2023-04-21T16:45:13.381Z,16.34
2023-04-21T16:47:42.554Z,16.30
2023-04-21T16:50:11.575Z,16.46
2023-04-21T16:52:39.946Z,16.47
2023-04-21T16:55:09.401Z,16.37
2023-04-21T16:57:37.912Z,16.48
2023-04-21T17:00:09.813Z,16.48
2023-04-21T17:02:38.387Z,16.41
2023-04-21T17:05:07.425Z,16.37
2023-04-21T17:07:36.356Z,15.80
2023-04-21T17:10:05.027Z,16.28
2023-04-21T17:12:33.262Z,16.25
2023-04-21T17:15:01.625Z,16.03
2023-04-21T17:17:40.791Z,16.13
2023-04-21T17:20:11.340Z,15.97
2023-04-21T17:22:39.669Z,15.75
2023-04-21T17:25:08.585Z,15.93
2023-04-21T17:27:38.470Z,15.92
2023-04-21T17:30:09.061Z,15.75
2023-04-21T17:32:40.679Z,15.58
2023-04-21T17:35:09.561Z,15.51
2023-04-21T17:37:37.967Z,15.48
2023-04-21T17:40:08.993Z,15.34
2023-04-21T17:42:37.343Z,15.38
2023-04-21T17:45:07.795Z,15.24
2023-04-21T17:47:36.450Z,15.08
2023-04-21T17:50:09.107Z,15.02
2023-04-21T17:52:37.413Z,14.87
2023-04-21T17:55:06.368Z,14.74
2023-04-21T17:57:34.689Z,14.46
2023-04-21T18:00:07.314Z,14.43
2023-04-21T18:02:35.910Z,14.55
2023-04-21T18:05:06.938Z,14.43
2023-04-21T18:07:35.478Z,14.49
2023-04-21T18:10:04.028Z,14.32
2023-04-21T18:12:32.410Z,14.25
2023-04-21T18:15:00.882Z,14.12
2023-04-21T18:17:29.281Z,13.92
2023-04-21T18:19:57.752Z,13.97
2023-04-21T18:22:27.587Z,13.28
2023-04-21T18:24:56.197Z,13.82
2023-04-21T18:27:24.601Z,13.72
2023-04-21T18:29:52.968Z,13.54
2023-04-21T18:32:21.332Z,13.46
2023-04-21T18:34:49.831Z,13.52
2023-04-21T18:37:18.767Z,13.45
2023-04-21T18:39:48.467Z,13.40
2023-04-21T18:42:17.290Z,13.31
2023-04-21T18:44:45.647Z,13.30
2023-04-21T18:47:15.712Z,13.19
2023-04-21T18:49:45.297Z,12.88
2023-04-21T18:52:14.219Z,13.30
2023-04-21T18:54:42.628Z,12.91
2023-04-21T18:57:12.873Z,12.78
2023-04-21T18:59:41.377Z,12.58
2023-04-21T19:02:13.820Z,12.64
2023-04-21T19:04:44.184Z,12.45
2023-04-21T19:07:12.938Z,12.12
2023-04-21T19:09:41.210Z,12.31
2023-04-21T19:12:09.657Z,12.37
2023-04-21T19:14:46.459Z,12.35
2023-04-21T19:17:15.800Z,12.43
2023-04-21T19:19:44.648Z,12.39
2023-04-21T19:22:13.079Z,12.17
2023-04-21T19:24:41.496Z,12.25
2023-04-21T19:27:09.836Z,11.92
2023-04-21T19:29:40.080Z,12.12
2023-04-21T19:32:08.434Z,11.83
2023-04-21T19:34:37.382Z,12.04
2023-04-21T19:37:06.120Z,12.04
2023-04-21T19:39:34.459Z,11.99
2023-04-21T19:42:02.979Z,11.92
2023-04-21T19:44:31.404Z,12.04
2023-04-21T19:47:10.249Z,11.97
2023-04-21T19:53:22.582Z,11.80
2023-04-21T19:55:52.988Z,11.58
2023-04-21T19:58:32.617Z,11.43
2023-04-21T20:01:08.408Z,11.54
2023-04-21T20:03:38.637Z,11.62
2023-04-21T20:06:07.709Z,11.58
2023-04-21T20:08:36.835Z,11.21
2023-04-21T20:15:32.524Z,11.58
2023-04-21T20:18:00.910Z,11.42
2023-04-21T20:20:30.972Z,11.18
2023-04-21T20:22:59.320Z,9.97
2023-04-21T20:25:28.028Z,11.15
2023-04-21T20:27:56.430Z,11.29
2023-04-21T20:30:24.741Z,11.10
2023-04-21T20:32:53.210Z,11.04
2023-04-21T20:35:21.628Z,11.11
2023-04-21T20:37:53.528Z,11.18
2023-04-21T20:40:22.038Z,11.26
2023-04-21T20:42:52.437Z,11.31
2023-04-21T20:45:21.549Z,11.21
2023-04-21T20:47:49.845Z,11.20
2023-04-21T20:50:18.646Z,11.30
2023-04-21T20:52:46.945Z,11.27
2023-04-21T20:55:16.811Z,11.10
2023-04-21T20:57:45.059Z,11.29
2023-04-21T21:00:13.976Z,11.22
2023-04-21T21:02:42.397Z,11.26
2023-04-21T21:05:11.047Z,11.00
2023-04-21T21:07:39.478Z,11.01
2023-04-21T21:10:10.977Z,11.03
2023-04-21T21:12:40.699Z,10.98
2023-04-21T21:15:09.570Z,11.22
2023-04-21T21:17:40.553Z,11.17
2023-04-21T21:20:10.122Z,11.21
2023-04-21T21:22:38.552Z,11.15
2023-04-21T21:25:07.436Z,11.13
2023-04-21T21:27:35.898Z,10.95
2023-04-21T21:30:06.412Z,11.12
2023-04-21T21:32:34.713Z,10.48
2023-04-21T21:35:03.044Z,11.02
2023-04-21T21:37:31.332Z,11.07
2023-04-21T21:39:59.470Z,11.16
2023-04-21T21:42:27.832Z,10.97
2023-04-21T21:44:56.061Z,11.26
2023-04-21T21:47:26.215Z,11.02
2023-04-21T21:49:56.059Z,11.19
2023-04-21T21:52:24.722Z,11.19
2023-04-21T21:54:54.066Z,11.15
2023-04-21T21:57:22.707Z,11.02
2023-04-21T21:59:50.967Z,11.08
2023-04-21T22:02:19.222Z,11.15
2023-04-21T22:04:49.565Z,11.11
2023-04-21T22:07:17.859Z,11.04
2023-04-21T22:09:46.599Z,11.11
2023-04-21T22:12:14.774Z,11.02
2023-04-21T22:14:42.944Z,10.99
2023-04-21T22:17:11.180Z,10.92
2023-04-21T22:19:41.818Z,10.91
2023-04-21T22:22:11.854Z,10.64
2023-04-21T22:24:40.055Z,10.80
2023-04-21T22:27:08.368Z,10.86
2023-04-21T22:29:36.764Z,10.86
2023-04-21T22:32:05.279Z,10.44
2023-04-21T22:34:33.455Z,9.98
2023-04-21T22:37:02.345Z,10.53
2023-04-21T22:39:31.999Z,10.70
2023-04-21T22:42:00.196Z,10.43
2023-04-21T22:44:28.369Z,10.52
2023-04-21T22:49:25.196Z,10.54
2023-04-21T22:51:54.541Z,10.56
2023-04-21T22:54:22.619Z,10.37
2023-04-21T22:56:52.289Z,10.48
2023-04-21T22:59:20.449Z,10.59
2023-04-21T23:01:48.685Z,10.54
2023-04-21T23:04:16.986Z,8.23
2023-04-21T23:06:45.164Z,9.93
2023-04-21T23:09:13.238Z,10.51
2023-04-21T23:11:41.476Z,10.49
2023-04-21T23:14:11.091Z,10.38
2023-04-21T23:16:39.399Z,10.33
2023-04-21T23:19:07.789Z,10.15
2023-04-21T23:21:35.972Z,10.20
2023-04-21T23:24:04.095Z,10.27
2023-04-21T23:26:32.247Z,8.49
2023-04-21T23:29:00.414Z,10.05
2023-04-21T23:31:30.825Z,10.16
2023-04-21T23:34:00.242Z,10.14
2023-04-21T23:36:28.606Z,9.52
2023-04-21T23:38:56.740Z,10.04
2023-04-21T23:41:25.089Z,9.38
2023-04-21T23:43:53.243Z,10.10
2023-04-21T23:46:21.397Z,10.02
2023-04-21T23:48:51.035Z,10.18
2023-04-21T23:51:19.337Z,10.05
2023-04-21T23:53:47.552Z,9.53
2023-04-21T23:56:15.854Z,9.17
2023-04-21T23:58:43.985Z,9.55
